createdAt,value
2022-11-15T00:01:28.751Z,45.28
2022-11-15T00:04:15.497Z,41.83
2022-11-15T00:07:06.916Z,39.90
2022-11-15T00:09:57.692Z,44.55
2022-11-15T00:12:45.600Z,41.92
2022-11-15T00:15:36.121Z,45.90
2022-11-15T00:18:27.432Z,47.97
2022-11-15T00:24:26.613Z,45.97
2022-11-15T00:27:13.244Z,39.75
2022-11-15T00:29:59.496Z,46.67
2022-11-15T00:32:46.069Z,48.47
2022-11-15T00:35:43.105Z,40.03
2022-11-15T00:38:34.427Z,43.03
2022-11-15T00:41:26.549Z,36.42
2022-11-15T00:44:13.366Z,38.10
2022-11-15T00:47:00.921Z,45.97
2022-11-15T00:49:48.400Z,46.42
2022-11-15T00:52:34.792Z,38.67
2022-11-15T00:55:21.159Z,43.95
2022-11-15T00:58:07.227Z,40.25
2022-11-15T01:00:53.298Z,41.17
2022-11-15T01:03:43.185Z,43.22
2022-11-15T01:06:29.138Z,40.08
2022-11-15T01:09:15.841Z,45.25
2022-11-15T01:12:01.920Z,39.75
2022-11-15T01:14:49.185Z,39.33
2022-11-15T01:17:34.918Z,39.80
2022-11-15T01:20:21.262Z,45.55
2022-11-15T01:23:07.214Z,38.97
2022-11-15T01:25:53.887Z,37.30
2022-11-15T01:28:55.403Z,45.17
2022-11-15T01:31:44.061Z,38.00
2022-11-15T01:34:30.879Z,42.67
2022-11-15T01:37:17.861Z,39.97
2022-11-15T01:40:04.824Z,40.15
2022-11-15T01:42:51.899Z,43.75
2022-11-15T01:45:39.372Z,38.50
2022-11-15T01:48:31.854Z,41.83
2022-11-15T01:51:20.395Z,35.08
2022-11-15T01:54:17.120Z,32.90
2022-11-15T01:57:07.254Z,43.58
2022-11-15T01:59:53.931Z,40.33
2022-11-15T02:02:40.534Z,38.75
2022-11-15T02:05:26.773Z,33.78
2022-11-15T02:11:32.211Z,36.42
2022-11-15T02:14:20.688Z,37.85
2022-11-15T02:17:09.699Z,31.77
2022-11-15T02:20:38.832Z,32.80
2022-11-15T02:23:43.983Z,34.58
2022-11-15T02:26:36.422Z,34.70
2022-11-15T02:29:26.139Z,43.58
2022-11-15T02:32:13.506Z,35.47
2022-11-15T02:35:13.701Z,39.40
2022-11-15T02:38:11.281Z,33.72
2022-11-15T02:41:08.760Z,38.38
2022-11-15T02:44:11.390Z,30.33
2022-11-15T02:47:14.939Z,34.50
2022-11-15T02:50:19.174Z,39.92
2022-11-15T02:53:13.378Z,32.00
2022-11-15T02:56:01.485Z,37.15
2022-11-15T02:59:12.444Z,32.47
2022-11-15T03:02:14.296Z,34.00
2022-11-15T03:05:20.087Z,34.70
2022-11-15T03:08:30.484Z,34.30
2022-11-15T03:11:21.029Z,34.55
2022-11-15T03:14:25.230Z,33.13
2022-11-15T03:17:26.408Z,33.45
2022-11-15T03:20:15.095Z,29.48
2022-11-15T03:23:12.165Z,35.65
2022-11-15T03:26:01.266Z,33.60
2022-11-15T03:31:50.344Z,33.88
2022-11-15T03:34:49.011Z,33.72
2022-11-15T03:37:42.922Z,34.92
2022-11-15T03:40:42.036Z,36.13
2022-11-15T03:43:39.984Z,34.83
2022-11-15T03:46:39.019Z,34.17
2022-11-15T03:49:34.118Z,31.85
2022-11-15T03:52:22.203Z,33.33
2022-11-15T03:55:11.654Z,31.35
2022-11-15T03:58:00.607Z,32.03
2022-11-15T04:00:46.987Z,32.10
2022-11-15T04:03:33.867Z,33.70
2022-11-15T04:06:20.378Z,32.33
2022-11-15T04:09:07.145Z,38.03
2022-11-15T04:11:53.928Z,31.00
2022-11-15T04:15:00.992Z,29.17
2022-11-15T04:17:53.952Z,31.90
2022-11-15T04:21:00.241Z,29.90
2022-11-15T04:24:06.041Z,34.60
2022-11-15T04:26:52.781Z,40.67
2022-11-15T04:29:39.088Z,32.40
2022-11-15T04:32:24.795Z,36.17
2022-11-15T04:35:12.633Z,35.28
2022-11-15T04:38:00.276Z,36.30
2022-11-15T04:40:47.123Z,36.20
2022-11-15T04:43:35.161Z,32.42
2022-11-15T04:46:22.005Z,32.65
2022-11-15T04:49:08.583Z,31.23
2022-11-15T04:51:55.154Z,34.83
2022-11-15T04:54:43.315Z,35.20
2022-11-15T04:57:31.633Z,36.28
2022-11-15T05:00:18.509Z,34.05
2022-11-15T05:03:24.051Z,35.53
2022-11-15T05:06:10.692Z,35.28
2022-11-15T05:08:57.712Z,29.80
2022-11-15T05:11:44.064Z,38.10
2022-11-15T05:14:30.421Z,29.95
2022-11-15T05:17:16.508Z,31.40
2022-11-15T05:20:03.156Z,35.92
2022-11-15T05:22:48.873Z,30.95
2022-11-15T05:25:34.897Z,33.13
2022-11-15T05:28:21.551Z,34.60
2022-11-15T05:31:11.696Z,36.15
2022-11-15T05:34:00.451Z,36.22
2022-11-15T05:36:51.107Z,30.42
2022-11-15T05:39:38.801Z,31.45
2022-11-15T05:42:27.783Z,32.67
2022-11-15T05:48:02.106Z,33.15
2022-11-15T05:50:48.915Z,34.38
2022-11-15T05:53:35.936Z,29.50
2022-11-15T05:56:22.667Z,31.58
2022-11-15T05:59:12.321Z,29.20
2022-11-15T06:01:58.808Z,32.83
2022-11-15T06:04:45.279Z,28.55
2022-11-15T06:07:33.495Z,32.58
2022-11-15T06:10:20.322Z,26.85
2022-11-15T06:13:12.584Z,35.30
2022-11-15T06:16:10.208Z,29.20
2022-11-15T06:19:04.761Z,29.80
2022-11-15T06:21:54.593Z,26.50
2022-11-15T06:24:42.196Z,24.45
2022-11-15T06:27:29.130Z,26.42
2022-11-15T06:30:16.792Z,26.83
2022-11-15T06:33:05.529Z,27.75
2022-11-15T06:35:55.158Z,26.05
2022-11-15T06:38:44.081Z,26.40
2022-11-15T06:41:30.742Z,26.63
2022-11-15T06:44:17.939Z,23.77
2022-11-15T06:47:07.331Z,26.85
2022-11-15T06:49:59.390Z,23.63
2022-11-15T06:56:21.464Z,27.10
2022-11-15T06:59:39.342Z,26.90
2022-11-15T07:02:29.484Z,26.58
2022-11-15T07:05:22.882Z,27.25
2022-11-15T07:08:28.595Z,28.55
2022-11-15T07:11:15.665Z,25.77
2022-11-15T07:14:01.792Z,24.77
2022-11-15T07:16:47.332Z,25.48
2022-11-15T07:19:33.039Z,27.65
2022-11-15T07:22:18.819Z,24.25
2022-11-15T07:25:04.621Z,27.00
2022-11-15T07:28:00.451Z,25.58
2022-11-15T07:30:46.634Z,26.05
2022-11-15T07:33:32.463Z,24.70
2022-11-15T07:36:19.111Z,23.35
2022-11-15T07:39:05.158Z,23.73
2022-11-15T07:42:11.819Z,31.10
2022-11-15T07:44:57.035Z,26.55
2022-11-15T07:47:46.951Z,24.95
2022-11-15T07:50:32.827Z,25.50
2022-11-15T07:53:18.528Z,21.45
2022-11-15T07:56:07.522Z,24.98
2022-11-15T07:58:53.268Z,25.58
2022-11-15T08:01:39.409Z,23.95
2022-11-15T08:04:25.375Z,22.02
2022-11-15T08:07:11.060Z,24.05
2022-11-15T08:09:56.994Z,20.50
2022-11-15T08:12:42.493Z,23.70
2022-11-15T08:15:29.686Z,24.20
2022-11-15T08:18:17.536Z,23.55
2022-11-15T08:21:03.527Z,23.60
2022-11-15T08:23:50.066Z,20.27
2022-11-15T08:26:36.075Z,20.67
2022-11-15T08:29:21.999Z,25.58
2022-11-15T08:32:08.233Z,21.70
2022-11-15T08:34:53.899Z,21.88
2022-11-15T08:37:39.837Z,21.35
2022-11-15T08:40:25.839Z,21.00
2022-11-15T08:43:11.694Z,21.83
2022-11-15T08:45:57.892Z,19.67
2022-11-15T08:48:43.211Z,19.85
2022-11-15T08:51:29.650Z,21.63
2022-11-15T08:54:15.025Z,19.85
2022-11-15T08:57:00.768Z,20.55
2022-11-15T08:59:46.191Z,21.38
2022-11-15T09:02:31.582Z,22.15
2022-11-15T09:05:17.291Z,22.95
2022-11-15T09:08:18.762Z,22.30
2022-11-15T09:11:11.201Z,20.23
2022-11-15T09:13:56.608Z,19.83
2022-11-15T09:16:42.308Z,20.42
2022-11-15T09:19:27.661Z,20.85
2022-11-15T09:22:13.825Z,19.38
2022-11-15T09:24:59.385Z,20.10
2022-11-15T09:27:44.899Z,21.63
2022-11-15T09:30:30.567Z,21.55
2022-11-15T09:33:16.004Z,20.70
2022-11-15T09:36:10.371Z,19.83
2022-11-15T09:38:56.158Z,20.80
2022-11-15T09:42:06.946Z,20.88
2022-11-15T09:45:24.093Z,19.17
2022-11-15T09:48:18.873Z,22.02
2022-11-15T09:51:29.624Z,21.85
2022-11-15T09:56:53.619Z,18.90
2022-11-15T09:59:32.487Z,19.83
2022-11-15T10:02:05.474Z,19.35
2022-11-15T10:04:33.057Z,18.55
2022-11-15T10:07:38.067Z,19.40
2022-11-15T10:10:14.277Z,16.92
2022-11-15T10:12:46.320Z,19.90
2022-11-15T10:15:16.975Z,18.35
2022-11-15T10:18:00.555Z,17.63
2022-11-15T10:20:30.108Z,15.77
2022-11-15T10:23:01.006Z,17.30
2022-11-15T10:25:30.570Z,17.10
2022-11-15T10:28:04.820Z,18.58
2022-11-15T10:30:36.380Z,16.42
2022-11-15T10:33:27.305Z,19.60
2022-11-15T10:36:09.412Z,17.80
2022-11-15T10:38:51.591Z,17.77
2022-11-15T10:41:20.030Z,16.77
2022-11-15T10:44:08.350Z,19.92
2022-11-15T10:46:47.142Z,17.30
2022-11-15T10:49:20.805Z,18.40
2022-11-15T10:52:26.209Z,19.75
2022-11-15T10:54:58.972Z,15.27
2022-11-15T10:57:56.470Z,18.13
2022-11-15T11:00:29.604Z,17.52
2022-11-15T11:02:56.429Z,20.13
2022-11-15T11:05:42.973Z,21.85
2022-11-15T11:08:15.848Z,18.27
2022-11-15T11:11:02.192Z,23.98
2022-11-15T11:13:36.206Z,19.73
2022-11-15T11:16:15.431Z,16.92
2022-11-15T11:18:57.361Z,20.70
2022-11-15T11:21:40.297Z,20.85
2022-11-15T11:24:10.259Z,20.15
2022-11-15T11:26:47.002Z,21.75
2022-11-15T11:29:46.301Z,22.65
2022-11-15T11:32:31.171Z,18.77
2022-11-15T11:35:40.792Z,19.58
2022-11-15T11:38:46.574Z,15.95
2022-11-15T11:41:27.926Z,17.02
2022-11-15T11:44:01.041Z,19.23
2022-11-15T11:46:50.887Z,17.20
2022-11-15T11:49:29.263Z,17.65
2022-11-15T11:52:11.053Z,16.73
2022-11-15T11:54:48.033Z,17.65
2022-11-15T11:57:26.538Z,17.67
2022-11-15T12:00:18.677Z,18.27
2022-11-15T12:03:04.760Z,17.13
2022-11-15T12:05:49.636Z,15.07
2022-11-15T12:08:59.132Z,19.67
2022-11-15T12:11:54.280Z,16.48
2022-11-15T12:14:43.493Z,20.70
2022-11-15T12:17:15.550Z,15.80
2022-11-15T12:19:43.723Z,17.95
2022-11-15T12:22:24.054Z,16.55
2022-11-15T12:25:09.387Z,13.75
2022-11-15T12:27:55.289Z,15.57
2022-11-15T12:30:23.936Z,14.50
2022-11-15T12:33:02.029Z,18.90
2022-11-15T12:35:40.966Z,14.88
2022-11-15T12:38:13.498Z,17.27
2022-11-15T12:41:13.873Z,14.82
2022-11-15T12:43:43.596Z,15.32
2022-11-15T12:46:44.698Z,17.30
2022-11-15T12:49:28.141Z,18.13
2022-11-15T12:51:58.364Z,16.13
2022-11-15T12:54:25.286Z,16.38
2022-11-15T12:57:04.605Z,15.48
2022-11-15T12:59:59.718Z,12.88
2022-11-15T13:02:27.800Z,14.50
2022-11-15T13:05:19.423Z,14.90
2022-11-15T13:07:46.560Z,15.43
2022-11-15T13:10:13.472Z,15.05
2022-11-15T13:12:46.485Z,16.50
2022-11-15T13:15:13.481Z,14.80
2022-11-15T13:17:46.230Z,15.18
2022-11-15T13:20:16.367Z,15.30
2022-11-15T13:22:53.392Z,17.50
2022-11-15T13:25:26.410Z,16.48
2022-11-15T13:27:55.332Z,15.05
2022-11-15T13:30:25.601Z,13.63
2022-11-15T13:32:53.538Z,16.45
2022-11-15T13:35:32.943Z,14.00
2022-11-15T13:38:05.696Z,15.00
2022-11-15T13:40:37.644Z,18.42
2022-11-15T13:43:22.814Z,16.92
2022-11-15T13:46:26.707Z,13.23
2022-11-15T13:49:04.564Z,14.60
2022-11-15T13:51:49.027Z,13.30
2022-11-15T13:54:22.076Z,12.57
2022-11-15T13:56:56.144Z,12.50
2022-11-15T13:59:28.113Z,15.52
2022-11-15T14:01:58.633Z,13.80
2022-11-15T14:04:30.556Z,13.32
2022-11-15T14:07:00.845Z,15.50
2022-11-15T14:09:50.489Z,14.95
2022-11-15T14:12:28.729Z,13.43
2022-11-15T14:14:59.641Z,12.88
2022-11-15T14:17:29.985Z,17.25
2022-11-15T14:19:58.626Z,14.02
2022-11-15T14:22:29.170Z,14.63
2022-11-15T14:25:22.642Z,12.13
2022-11-15T14:28:30.272Z,11.63
2022-11-15T14:30:59.768Z,13.90
2022-11-15T14:33:31.617Z,19.23
2022-11-15T14:36:07.731Z,17.08
2022-11-15T14:38:35.743Z,15.50
2022-11-15T14:41:03.266Z,15.98
2022-11-15T14:43:30.363Z,18.20
2022-11-15T14:45:57.358Z,17.77
2022-11-15T14:48:24.278Z,19.20
2022-11-15T14:50:51.170Z,18.75
2022-11-15T14:53:18.950Z,18.35
2022-11-15T14:55:45.790Z,16.55
2022-11-15T14:58:12.612Z,16.65
2022-11-15T15:00:41.343Z,16.30
2022-11-15T15:03:08.328Z,18.95
2022-11-15T15:05:36.731Z,20.30
2022-11-15T15:08:04.030Z,14.63
2022-11-15T15:10:44.028Z,21.58
2022-11-15T15:13:23.354Z,18.52
2022-11-15T15:15:51.695Z,16.27
2022-11-15T15:18:20.781Z,16.90
2022-11-15T15:21:08.093Z,18.95
2022-11-15T15:23:36.542Z,17.10
2022-11-15T15:26:03.841Z,20.92
2022-11-15T15:28:34.474Z,21.08
2022-11-15T15:31:02.671Z,19.80
2022-11-15T15:33:29.585Z,18.92
2022-11-15T15:35:56.504Z,20.13
2022-11-15T15:38:23.767Z,22.40
2022-11-15T15:40:51.705Z,21.27
2022-11-15T15:43:22.405Z,20.35
2022-11-15T15:45:49.427Z,22.52
2022-11-15T15:48:17.821Z,27.10
2022-11-15T15:50:44.906Z,23.77
2022-11-15T15:53:13.051Z,23.48
2022-11-15T15:55:40.286Z,20.58
2022-11-15T15:58:09.069Z,19.02
2022-11-15T16:00:36.732Z,21.25
2022-11-15T16:03:04.120Z,26.52
2022-11-15T16:05:31.055Z,23.20
2022-11-15T16:07:59.194Z,21.70
2022-11-15T16:10:33.083Z,21.75
2022-11-15T16:13:00.104Z,22.88
2022-11-15T16:15:30.327Z,27.45
2022-11-15T16:17:59.467Z,23.42
2022-11-15T16:20:35.307Z,22.58
2022-11-15T16:23:08.648Z,25.73
2022-11-15T16:25:51.375Z,25.80
2022-11-15T16:28:27.438Z,25.27
2022-11-15T16:31:11.520Z,25.13
2022-11-15T16:33:39.339Z,24.95
2022-11-15T16:36:15.261Z,26.60
2022-11-15T16:38:42.196Z,29.48
2022-11-15T16:41:09.156Z,24.20
2022-11-15T16:43:36.135Z,29.38
2022-11-15T16:46:22.015Z,28.75
2022-11-15T16:48:49.286Z,25.80
2022-11-15T16:51:16.811Z,33.22
2022-11-15T16:53:44.478Z,26.42
2022-11-15T16:56:31.124Z,26.75
2022-11-15T16:58:59.408Z,25.42
2022-11-15T17:01:29.262Z,30.60
2022-11-15T17:03:56.759Z,31.08
2022-11-15T17:06:24.832Z,26.83
2022-11-15T17:08:52.530Z,28.88
2022-11-15T17:11:21.602Z,28.13
2022-11-15T17:13:49.505Z,31.42
2022-11-15T17:16:17.996Z,32.75
2022-11-15T17:18:45.690Z,29.77
2022-11-15T17:21:15.984Z,23.73
2022-11-15T17:23:43.454Z,31.65
2022-11-15T17:26:28.960Z,33.63
2022-11-15T17:28:57.853Z,28.48
2022-11-15T17:31:25.489Z,30.33
2022-11-15T17:33:52.518Z,29.58
2022-11-15T17:36:19.458Z,29.10
2022-11-15T17:38:50.332Z,27.10
2022-11-15T17:41:18.413Z,28.05
2022-11-15T17:43:45.303Z,21.63
2022-11-15T17:46:14.932Z,27.25
2022-11-15T17:48:43.200Z,29.48
2022-11-15T17:51:14.967Z,31.98
2022-11-15T17:53:44.564Z,25.38
2022-11-15T17:56:14.474Z,29.80
2022-11-15T17:58:41.654Z,25.30
2022-11-15T18:01:20.389Z,28.20
2022-11-15T18:03:48.293Z,29.90
2022-11-15T18:06:16.043Z,25.65
2022-11-15T18:08:46.608Z,26.38
2022-11-15T18:11:18.799Z,26.30
2022-11-15T18:13:52.200Z,28.38
2022-11-15T18:16:21.920Z,24.90
2022-11-15T18:18:49.029Z,23.88
2022-11-15T18:21:20.028Z,29.52
2022-11-15T18:23:47.549Z,27.33
2022-11-15T18:26:16.422Z,28.13
2022-11-15T18:28:48.989Z,26.65
2022-11-15T18:31:27.311Z,26.52
2022-11-15T18:33:54.855Z,26.77
2022-11-15T18:36:27.844Z,23.00
2022-11-15T18:39:00.131Z,27.95
2022-11-15T18:41:30.870Z,25.17
2022-11-15T18:43:59.498Z,25.70
2022-11-15T18:46:30.537Z,24.30
2022-11-15T18:48:59.574Z,23.60
2022-11-15T18:51:29.910Z,20.00
2022-11-15T18:53:59.383Z,25.38
2022-11-15T18:56:27.766Z,23.83
2022-11-15T18:58:57.291Z,21.80
2022-11-15T19:01:33.630Z,24.50
2022-11-15T19:06:31.433Z,25.10
2022-11-15T19:08:59.706Z,24.00
2022-11-15T19:11:32.581Z,27.48
2022-11-15T19:14:05.612Z,25.23
2022-11-15T19:16:34.958Z,20.75
2022-11-15T19:19:08.019Z,24.08
2022-11-15T19:21:35.180Z,24.02
2022-11-15T19:24:11.153Z,26.70
2022-11-15T19:26:39.191Z,32.53
2022-11-15T19:29:08.924Z,25.75
2022-11-15T19:31:37.680Z,23.00
2022-11-15T19:34:05.454Z,24.58
2022-11-15T19:36:35.410Z,24.48
2022-11-15T19:39:05.612Z,27.52
2022-11-15T19:41:32.768Z,19.63
2022-11-15T19:43:59.836Z,19.65
2022-11-15T19:46:27.189Z,24.75
2022-11-15T19:48:54.488Z,25.25
2022-11-15T19:51:27.522Z,20.17
2022-11-15T19:53:56.611Z,20.92
2022-11-15T19:56:24.267Z,27.65
2022-11-15T19:58:55.809Z,27.45
2022-11-15T20:01:28.817Z,27.92
2022-11-15T20:03:59.397Z,29.88
2022-11-15T20:06:29.060Z,20.38
2022-11-15T20:08:56.377Z,24.92
2022-11-15T20:11:24.083Z,21.25
2022-11-15T20:13:51.743Z,24.75
2022-11-15T20:16:21.442Z,25.83
2022-11-15T20:18:50.367Z,21.08
2022-11-15T20:21:17.636Z,24.27
2022-11-15T20:23:45.736Z,17.77
2022-11-15T20:26:15.806Z,26.83
2022-11-15T20:28:44.768Z,26.65
2022-11-15T20:31:12.829Z,31.73
2022-11-15T20:33:40.470Z,32.90
2022-11-15T20:36:12.934Z,24.05
2022-11-15T20:38:40.030Z,21.42
2022-11-15T20:41:07.574Z,27.77
2022-11-15T20:43:34.560Z,25.23
2022-11-15T20:46:01.493Z,23.80
2022-11-15T20:48:28.426Z,24.92
2022-11-15T20:51:13.065Z,29.95
2022-11-15T20:53:41.388Z,27.25
2022-11-15T20:56:12.478Z,25.42
2022-11-15T20:58:39.445Z,35.25
2022-11-15T21:01:08.276Z,31.17
2022-11-15T21:03:35.969Z,32.53
2022-11-15T21:06:04.076Z,26.20
2022-11-15T21:08:53.563Z,20.27
2022-11-15T21:11:40.244Z,28.08
2022-11-15T21:14:09.553Z,21.05
2022-11-15T21:16:37.995Z,27.65
2022-11-15T21:23:07.626Z,28.67
2022-11-15T21:25:41.828Z,31.27
2022-11-15T21:32:05.593Z,28.98
2022-11-15T21:34:58.653Z,26.38
2022-11-15T21:37:27.104Z,28.88
2022-11-15T21:39:54.652Z,30.52
2022-11-15T21:42:22.456Z,27.48
2022-11-15T21:44:50.396Z,27.02
2022-11-15T21:47:20.567Z,25.83
2022-11-15T21:49:48.537Z,28.08
2022-11-15T21:52:16.398Z,22.48
2022-11-15T21:54:44.506Z,23.38
2022-11-15T21:57:12.253Z,29.42
2022-11-15T22:00:00.018Z,24.42
2022-11-15T22:02:27.329Z,26.80
2022-11-15T22:04:54.849Z,27.77
2022-11-15T22:07:22.769Z,24.63
2022-11-15T22:09:52.919Z,17.58
2022-11-15T22:12:22.749Z,23.77
2022-11-15T22:14:54.252Z,29.17
2022-11-15T22:17:22.680Z,24.98
2022-11-15T22:19:52.844Z,25.25
2022-11-15T22:22:20.872Z,21.73
2022-11-15T22:24:48.230Z,18.55
2022-11-15T22:27:16.103Z,24.77
2022-11-15T22:29:43.879Z,23.25
2022-11-15T22:32:11.299Z,23.25
2022-11-15T22:34:39.053Z,20.73
2022-11-15T22:37:19.774Z,25.27
2022-11-15T22:39:52.620Z,29.02
2022-11-15T22:42:23.952Z,21.10
2022-11-15T22:44:51.632Z,26.17
2022-11-15T22:47:19.361Z,20.65
2022-11-15T22:49:46.897Z,15.10
2022-11-15T22:52:17.584Z,20.48
2022-11-15T22:54:45.062Z,26.65
2022-11-15T22:57:14.160Z,30.20
2022-11-15T22:59:42.476Z,26.10
2022-11-15T23:02:09.891Z,20.10
2022-11-15T23:04:37.579Z,25.10
2022-11-15T23:07:05.190Z,28.83
2022-11-15T23:09:32.472Z,26.13
2022-11-15T23:12:19.008Z,27.33
2022-11-15T23:14:46.882Z,23.55
2022-11-15T23:17:16.867Z,26.88
2022-11-15T23:19:44.452Z,22.27
2022-11-15T23:22:30.585Z,26.92
2022-11-15T23:24:59.621Z,30.02
2022-11-15T23:27:27.454Z,26.45
2022-11-15T23:30:13.521Z,30.17
2022-11-15T23:32:59.893Z,16.05
2022-11-15T23:35:27.981Z,26.23
2022-11-15T23:37:56.067Z,29.33
2022-11-15T23:40:25.484Z,25.92
2022-11-15T23:42:53.628Z,27.88
2022-11-15T23:45:21.062Z,29.75
2022-11-15T23:47:49.508Z,27.13
2022-11-15T23:50:18.237Z,21.40
2022-11-15T23:52:46.076Z,25.33
2022-11-15T23:55:13.732Z,31.90
2022-11-15T23:57:41.370Z,29.58
